Streamwood, IL (60107)

4:18 PM CST on February 08, 2016 (GMT -0600)
Streamwood East | | Change Station
CLOSE
Current Station
Personal Weather Station
Location: Streamwood, IL
Elevation: 810 ft
Nearby Weather Stations
Active Advisory: Special Statement

Elev 810 ft 42.01 °N, 88.17 °W | Updated 7 seconds ago

Overcast
Overcast
26.4 °F
Feels Like 22 °F
N
3.7
Wind Variable Wind from West

Today
High -- | Low -- °F
--% Chance of Precip.
Yesterday
High -- | Low -- °F
Precip. -- in
Pressure 29.74 in
Visibility 10.0 miles
Clouds Overcast 1700 ft
Windchill 22 °F
Dew Point 20 °F
Humidity 75%
Rainfall 0.00 in
Snow Depth Not available.
6:58 AM 5:16 PM
New Moon, 0% visible
METAR KDPA 082152Z 30010KT 10SM OVC017 M03/M07 A2971 RMK AO2 SLP070 T10331072
Pressure 29.74 in
Visibility 10.0 miles
Clouds Overcast 1700 ft
Windchill 22 °F
Dew Point 20 °F
Humidity 75%
Rainfall 0.00 in
Snow Depth Not available.
6:58 AM 5:16 PM
New Moon, 0% visible
METAR KDPA 082152Z 30010KT 10SM OVC017 M03/M07 A2971 RMK AO2 SLP070 T10331072

10-Day Weather Forecast

Almanac

Astronomy

Feb. 08, 2016 Rise Set
Actual Time
Civil Twilight
Nautical Twilight
Astronomical Twilight
Moon
Length of Visible Light
Length of Day
Tomorrow will be .
, % of the Moon is Illuminated

Today's Extremes

State Highs State Lows

Community

WunderPhotos

Upload Photos

1,891,516 photos uploaded!

WunderBlog® & News

Nearby

Air Quality

  Air Quality AQ Index Pollutant
Not available.

Snow Depth

Station Depth Elevation

Earthquake Activity

City Distance Mag. Time & Date
Minimum magnitude displayed is 2.5.

Coastal Water Temperatures

Place Temperature

Stations

Nearby Weather Stations

Station Location Temp. Windchill Dew Point Humidity Wind Precip. Elev Updated Type
                   

Watches & Warnings

Special Statement
Issued: 4:07 PM EST Feb. 8, 2016 – National Weather Service

... Light snow likely tonight into early Tuesday...

Light snow is likely tonight into Tuesday morning with some minor
accumulations of an inch or so possible. Light snow will likely
have an adverse impact on the Tuesday morning rush hour.


307 PM CST Mon Feb 8 2016 /407 PM EST Mon Feb 8 2016/

... Light snow likely tonight into early Tuesday...

Light snow is likely tonight into Tuesday morning with some minor
accumulations of an inch or so possible. Light snow will likely
have an adverse impact on the Tuesday morning rush hour.